Time;durP1;ratioP1;P1;durP2;ratioP2;P2;SDS_P1;SDS_P2;PMS_P1;PMS_P2;Temp;Humidity;BMP_temperature;BMP_pressure;BME280_temperature;BME280_humidity;BME280_pressure;Samples;Min_cycle;Max_cycle;Signal;HPM_P1;HPM_P2
2022/03/27 00:01:26;;;;;;;15.32;4.75;;;;;;;3.69;95.07;103110.75;4990827;28;20166;-48
2022/03/27 00:03:51;;;;;;;20.05;5.20;;;;;;;3.57;94.83;103122.78;4990321;28;20521;-46
2022/03/27 00:06:17;;;;;;;17.90;4.90;;;;;;;3.57;95.01;103129.00;4991080;28;20203;-44
2022/03/27 00:08:42;;;;;;;17.60;4.80;;;;;;;3.61;94.98;103120.28;4991475;28;20549;-50
2022/03/27 00:11:27;;;;;;;11.32;4.63;;;;;;;3.68;94.87;103119.56;4991266;28;20260;-46
2022/03/27 00:13:55;;;;;;;14.73;4.82;;;;;;;3.49;94.21;103114.63;4989383;28;20181;-45
2022/03/27 00:16:21;;;;;;;17.05;5.70;;;;;;;3.35;94.46;103119.53;4989742;28;20239;-48
2022/03/27 00:18:47;;;;;;;12.52;4.65;;;;;;;3.34;95.01;103125.69;4989574;28;20209;-46
2022/03/27 00:21:13;;;;;;;23.02;6.18;;;;;;;3.32;95.12;103121.19;4991152;28;20674;-46
2022/03/27 00:23:39;;;;;;;16.88;5.55;;;;;;;3.34;95.25;103119.50;4989849;28;20272;-48
2022/03/27 00:26:04;;;;;;;17.77;5.90;;;;;;;3.31;95.34;103125.59;4990822;28;20181;-46
2022/03/27 00:28:33;;;;;;;16.92;5.82;;;;;;;3.30;95.37;103122.06;4990598;28;20654;-45
2022/03/27 00:31:07;;;;;;;15.82;5.95;;;;;;;3.29;95.47;103124.66;4990490;28;20180;-44
2022/03/27 00:33:35;;;;;;;16.67;5.05;;;;;;;3.34;95.79;103111.53;4990371;28;20169;-46
2022/03/27 00:36:02;;;;;;;27.00;6.30;;;;;;;3.28;95.46;103104.34;4989001;28;20196;-46
2022/03/27 00:38:29;;;;;;;19.75;5.40;;;;;;;3.30;95.75;103115.84;4990459;28;20254;-45
2022/03/27 00:40:55;;;;;;;16.02;6.03;;;;;;;3.21;95.40;103113.81;4990824;28;20223;-45
2022/03/27 00:43:21;;;;;;;17.45;5.70;;;;;;;3.12;95.77;103110.91;4989882;28;20201;-46
2022/03/27 00:45:47;;;;;;;17.67;5.88;;;;;;;3.14;95.80;103119.81;4990951;28;20200;-43
2022/03/27 00:48:14;;;;;;;13.48;5.38;;;;;;;3.19;95.92;103117.28;4991247;28;20182;-42
2022/03/27 00:50:40;;;;;;;26.00;6.85;;;;;;;2.92;95.54;103115.63;4991265;28;20659;-43
2022/03/27 00:53:06;;;;;;;18.92;6.80;;;;;;;2.97;96.58;103115.75;4991409;28;20260;-43
2022/03/27 00:55:32;;;;;;;15.82;5.75;;;;;;;3.03;96.13;103111.53;4991387;28;20672;-42
2022/03/27 00:57:58;;;;;;;23.00;6.80;;;;;;;2.69;96.04;103114.94;4991473;28;20229;-44
2022/03/27 01:00:39;;;;;;;17.40;6.97;;;;;;;2.73;97.32;103118.56;4991322;28;20204;-44
2022/03/27 01:03:13;;;;;;;21.05;6.90;;;;;;;2.75;97.74;103120.38;4991381;28;20169;-44
2022/03/27 01:05:40;;;;;;;17.23;6.95;;;;;;;2.80;98.02;103118.81;4990141;28;20212;-42
2022/03/27 01:08:07;;;;;;;17.27;6.30;;;;;;;2.88;98.09;103119.91;4990122;28;20208;-41
2022/03/27 01:10:34;;;;;;;19.17;6.95;;;;;;;2.50;97.37;103110.81;4991419;28;20174;-44
2022/03/27 01:13:04;;;;;;;22.75;6.93;;;;;;;2.23;98.17;103127.56;4991261;28;20169;-42
2022/03/27 01:15:46;;;;;;;23.13;7.22;;;;;;;2.31;99.15;103130.47;4991652;28;20197;-41
2022/03/27 01:18:12;;;;;;;23.10;7.50;;;;;;;2.37;99.37;103119.19;4990933;28;20190;-42
2022/03/27 01:20:41;;;;;;;19.10;7.22;;;;;;;2.35;99.64;103111.19;4991389;28;20609;-42
2022/03/27 01:23:10;;;;;;;13.75;6.05;;;;;;;2.55;99.80;103114.47;4991053;28;20173;-45
2022/03/27 01:25:37;;;;;;;23.70;7.55;;;;;;;2.39;99.19;103109.56;4994620;28;20827;-45
2022/03/27 01:28:04;;;;;;;24.20;6.93;;;;;;;2.45;99.40;103093.88;4995044;28;20169;-44
2022/03/27 01:30:29;;;;;;;21.92;6.68;;;;;;;2.43;99.28;103090.31;4994734;28;20165;-43
2022/03/27 01:32:55;;;;;;;18.50;6.53;;;;;;;2.46;99.08;103095.69;4995196;28;20619;-43
2022/03/27 01:35:22;;;;;;;15.95;6.78;;;;;;;2.52;99.04;103101.16;4994479;28;20223;-44
2022/03/27 01:37:48;;;;;;;23.67;7.45;;;;;;;2.31;98.28;103103.13;4995029;28;20297;-44
2022/03/27 01:40:15;;;;;;;22.23;7.65;;;;;;;2.26;98.73;103095.03;4993831;28;20650;-47
2022/03/27 01:42:41;;;;;;;25.30;7.50;;;;;;;2.33;98.94;103082.91;4993438;28;20621;-44
2022/03/27 01:45:07;;;;;;;17.15;6.55;;;;;;;2.39;99.33;103093.69;4993522;28;20275;-43
2022/03/27 01:47:32;;;;;;;20.55;6.95;;;;;;;2.40;99.13;103083.13;4993664;28;20216;-43
2022/03/27 01:50:00;;;;;;;24.50;7.38;;;;;;;2.38;98.92;103084.81;4993750;28;20422;-44
2022/03/27 01:52:25;;;;;;;14.88;6.55;;;;;;;2.40;99.26;103085.78;4993558;28;20169;-44
2022/03/27 01:54:51;;;;;;;19.30;7.32;;;;;;;2.30;98.35;103083.72;4993459;28;20675;-44
2022/03/27 01:57:16;;;;;;;20.48;6.38;;;;;;;2.24;98.63;103086.16;4990384;28;20194;-45
2022/03/27 01:59:42;;;;;;;23.77;6.10;;;;;;;2.29;98.75;103096.88;4989338;28;20205;-44
2022/03/27 02:02:07;;;;;;;16.83;6.30;;;;;;;2.39;98.84;103083.09;4993086;28;20236;-47
2022/03/27 02:04:32;;;;;;;26.58;7.15;;;;;;;2.32;98.00;103083.75;4992502;28;20189;-44
2022/03/27 02:06:58;;;;;;;21.48;6.85;;;;;;;2.06;98.05;103083.81;4993329;28;20165;-44
2022/03/27 02:09:23;;;;;;;29.63;7.38;;;;;;;1.87;97.99;103081.38;4993553;28;20499;-44
2022/03/27 02:11:49;;;;;;;25.33;7.03;;;;;;;1.94;98.88;103083.38;4992892;28;20177;-46
2022/03/27 02:14:14;;;;;;;18.67;6.78;;;;;;;1.93;99.11;103066.63;4992944;28;20209;-46
2022/03/27 02:16:40;;;;;;;22.40;7.22;;;;;;;1.95;99.65;103074.63;4992693;28;20265;-45
2022/03/27 02:19:08;;;;;;;17.50;6.05;;;;;;;2.05;99.81;103067.03;4992964;28;20169;-44
2022/03/27 02:21:34;;;;;;;24.00;7.05;;;;;;;1.98;99.02;103067.69;4993225;28;20629;-41
2022/03/27 02:24:03;;;;;;;23.70;7.65;;;;;;;1.80;99.38;103053.84;4992538;28;20265;-44
2022/03/27 02:26:29;;;;;;;26.85;7.82;;;;;;;1.86;99.84;103056.72;4992723;28;20188;-43
2022/03/27 02:28:55;;;;;;;24.80;7.30;;;;;;;1.96;99.95;103055.25;4992996;28;20256;-44
2022/03/27 02:31:20;;;;;;;17.88;6.47;;;;;;;1.98;99.57;103043.00;4991570;28;20265;-44
2022/03/27 02:33:45;;;;;;;26.02;7.13;;;;;;;1.88;99.53;103048.81;4992550;28;20353;-43
2022/03/27 02:36:11;;;;;;;24.55;7.47;;;;;;;1.85;99.56;103050.50;4990310;28;20259;-45
2022/03/27 02:38:37;;;;;;;20.90;6.85;;;;;;;1.72;99.10;103065.91;4992932;28;20178;-43
2022/03/27 02:41:06;;;;;;;18.38;6.68;;;;;;;1.85;99.56;103058.44;4992500;28;20209;-45
2022/03/27 02:43:33;;;;;;;24.67;8.05;;;;;;;1.50;98.75;103054.59;4991969;28;20555;-45
2022/03/27 02:45:59;;;;;;;23.90;7.53;;;;;;;1.30;100.00;103060.91;4992406;28;20602;-45
2022/03/27 02:48:25;;;;;;;22.95;7.57;;;;;;;1.44;100.00;103064.94;4992542;28;20166;-46
2022/03/27 02:50:50;;;;;;;26.35;8.25;;;;;;;1.40;100.00;103077.16;4992759;28;20185;-43
2022/03/27 02:53:16;;;;;;;26.63;7.57;;;;;;;1.43;100.00;103079.88;4991975;28;20169;-43
2022/03/27 02:55:41;;;;;;;28.95;7.88;;;;;;;1.40;100.00;103071.88;4991783;28;20185;-45
2022/03/27 02:58:07;;;;;;;20.40;6.20;;;;;;;1.47;100.00;103078.25;4991116;28;20308;-44
2022/03/27 03:00:33;;;;;;;21.08;6.90;;;;;;;1.53;100.00;103081.13;4991880;28;20184;-44
2022/03/27 03:02:58;;;;;;;27.83;8.48;;;;;;;1.49;100.00;103081.88;4991659;28;20632;-44
2022/03/27 03:05:24;;;;;;;23.40;7.22;;;;;;;1.51;100.00;103085.47;4992423;28;20205;-45
2022/03/27 03:07:50;;;;;;;18.23;6.45;;;;;;;1.51;100.00;103081.88;4992004;28;20181;-41
2022/03/27 03:10:16;;;;;;;23.80;7.13;;;;;;;1.34;100.00;103068.09;4992221;28;20169;-44
2022/03/27 03:12:41;;;;;;;22.55;7.03;;;;;;;1.12;99.82;103077.88;4991650;28;20212;-44
2022/03/27 03:15:08;;;;;;;25.25;7.78;;;;;;;0.99;100.00;103076.53;4990851;28;20196;-45
2022/03/27 03:17:34;;;;;;;25.92;8.25;;;;;;;1.05;100.00;103075.88;4991975;28;20349;-43
2022/03/27 03:20:00;;;;;;;24.05;8.05;;;;;;;1.27;100.00;103066.06;4991887;28;20170;-43
2022/03/27 03:22:26;;;;;;;20.33;6.93;;;;;;;1.40;100.00;103063.03;4991540;28;20259;-44
2022/03/27 03:24:52;;;;;;;21.77;7.38;;;;;;;1.32;100.00;103056.59;4991607;28;20280;-44
2022/03/27 03:27:17;;;;;;;29.15;7.88;;;;;;;1.37;100.00;103057.63;4991917;28;20269;-45
2022/03/27 03:29:43;;;;;;;26.25;7.50;;;;;;;1.35;100.00;103069.88;4991534;28;20166;-44
2022/03/27 03:32:08;;;;;;;33.38;8.13;;;;;;;1.30;100.00;103064.44;4991527;28;20169;-42
2022/03/27 03:34:34;;;;;;;24.77;7.65;;;;;;;1.19;100.00;103056.13;4991025;28;20193;-43
2022/03/27 03:37:00;;;;;;;18.27;7.13;;;;;;;1.34;100.00;103065.47;4991612;28;20659;-43
2022/03/27 03:39:25;;;;;;;24.65;6.85;;;;;;;1.31;100.00;103067.97;4991377;28;20611;-43
2022/03/27 03:41:51;;;;;;;22.50;6.55;;;;;;;1.42;100.00;103066.63;4991674;28;20162;-44
2022/03/27 03:44:17;;;;;;;16.25;6.68;;;;;;;1.42;100.00;103066.63;4990831;28;20268;-45
2022/03/27 03:46:43;;;;;;;23.42;6.93;;;;;;;1.23;99.75;103065.06;4991597;28;20188;-43
2022/03/27 03:49:09;;;;;;;27.92;8.18;;;;;;;1.18;100.00;103062.28;4991307;28;20553;-44
2022/03/27 03:51:35;;;;;;;23.92;7.63;;;;;;;1.16;100.00;103063.97;4991330;28;20645;-44
2022/03/27 03:54:02;;;;;;;28.33;7.53;;;;;;;1.31;100.00;103068.91;4990706;28;20175;-44
2022/03/27 03:56:28;;;;;;;27.60;6.85;;;;;;;1.15;100.00;103066.53;4990689;28;20636;-47
2022/03/27 03:58:53;;;;;;;20.38;7.22;;;;;;;1.18;100.00;103061.34;4989329;28;20264;-45
2022/03/27 04:01:18;;;;;;;23.77;7.63;;;;;;;1.05;100.00;103081.16;4990765;28;20177;-44
2022/03/27 04:03:44;;;;;;;21.73;6.93;;;;;;;1.15;100.00;103072.69;4990558;28;20170;-45
2022/03/27 04:06:09;;;;;;;19.27;6.10;;;;;;;1.21;100.00;103088.78;4991250;28;20197;-43
2022/03/27 04:08:36;;;;;;;23.85;6.82;;;;;;;1.17;100.00;103081.59;4989208;28;20255;-44
2022/03/27 04:11:02;;;;;;;16.20;6.85;;;;;;;1.25;100.00;103073.97;4990938;28;20185;-43
2022/03/27 04:13:27;;;;;;;19.38;6.68;;;;;;;1.26;100.00;103081.03;4989270;28;20195;-43
2022/03/27 04:15:52;;;;;;;27.10;7.15;;;;;;;1.35;100.00;103093.66;4990854;28;20189;-43
2022/03/27 04:18:18;;;;;;;24.45;7.30;;;;;;;1.24;100.00;103078.31;4990998;28;20201;-44
2022/03/27 04:20:43;;;;;;;16.30;6.03;;;;;;;1.27;100.00;103082.84;4990797;28;20631;-44
2022/03/27 04:23:09;;;;;;;17.33;6.82;;;;;;;1.29;100.00;103081.16;4990166;28;20641;-45
2022/03/27 04:25:35;;;;;;;21.33;6.15;;;;;;;1.29;100.00;103085.50;4989424;28;20189;-44
2022/03/27 04:28:08;;;;;;;22.80;7.72;;;;;;;1.26;100.00;103086.31;4990709;28;20224;-47
2022/03/27 04:30:35;;;;;;;26.23;7.82;;;;;;;1.13;100.00;103089.34;4990949;28;20180;-42
2022/03/27 04:33:00;;;;;;;20.05;7.22;;;;;;;1.04;100.00;103079.34;4990350;28;20176;-46
2022/03/27 04:35:26;;;;;;;23.90;6.40;;;;;;;1.13;100.00;103076.13;4990832;28;20197;-45
2022/03/27 04:37:51;;;;;;;18.23;7.32;;;;;;;1.10;100.00;103084.84;4990405;28;20208;-44
2022/03/27 04:40:17;;;;;;;26.27;7.35;;;;;;;1.07;100.00;103079.44;4990665;28;20235;-45
2022/03/27 04:42:42;;;;;;;19.35;7.60;;;;;;;0.89;100.00;103084.94;4990044;28;20173;-44
2022/03/27 04:45:09;;;;;;;19.92;6.93;;;;;;;0.93;100.00;103083.31;4990414;28;20299;-44
2022/03/27 04:47:35;;;;;;;18.20;6.65;;;;;;;0.91;100.00;103085.00;4990567;28;20281;-45
2022/03/27 04:50:01;;;;;;;15.15;6.68;;;;;;;1.03;100.00;103070.53;4990716;28;20178;-44
2022/03/27 04:52:26;;;;;;;22.63;7.07;;;;;;;1.11;100.00;103068.16;4989810;28;20181;-45
2022/03/27 04:54:52;;;;;;;25.88;6.97;;;;;;;1.18;100.00;103066.63;4990199;28;20239;-46
2022/03/27 04:57:17;;;;;;;24.13;7.28;;;;;;;1.05;100.00;103067.94;4990676;28;20209;-47
2022/03/27 04:59:43;;;;;;;22.15;7.05;;;;;;;1.09;100.00;103061.03;4992887;28;20570;-43
2022/03/27 05:02:08;;;;;;;27.90;7.40;;;;;;;1.05;100.00;103060.03;4994144;28;20167;-44
2022/03/27 05:04:34;;;;;;;24.45;7.53;;;;;;;0.93;100.00;103065.72;4993587;28;20219;-45
2022/03/27 05:06:59;;;;;;;26.88;7.63;;;;;;;1.02;100.00;103058.16;4993942;28;20154;-43
2022/03/27 05:09:25;;;;;;;26.60;7.97;;;;;;;1.03;100.00;103065.25;4994266;28;20178;-44
2022/03/27 05:11:50;;;;;;;22.35;7.03;;;;;;;1.02;100.00;103066.06;4993197;28;20231;-44
2022/03/27 05:14:16;;;;;;;23.30;8.00;;;;;;;1.02;100.00;103065.19;4993503;28;20208;-44
2022/03/27 05:16:42;;;;;;;35.63;8.95;;;;;;;1.01;100.00;103055.47;4992249;28;20688;-43
2022/03/27 05:19:08;;;;;;;33.33;8.70;;;;;;;0.99;100.00;103073.00;4992675;28;20173;-44
2022/03/27 05:21:34;;;;;;;24.85;8.20;;;;;;;1.03;100.00;103072.28;4993492;28;20605;-45
2022/03/27 05:24:00;;;;;;;20.42;7.80;;;;;;;1.10;100.00;103074.28;4992055;28;20223;-44
2022/03/27 05:26:26;;;;;;;30.02;7.70;;;;;;;1.10;100.00;103073.41;4993922;28;20532;-45
2022/03/27 05:28:52;;;;;;;19.73;7.13;;;;;;;1.18;100.00;103075.47;4993835;28;20193;-44
2022/03/27 05:31:18;;;;;;;23.20;7.65;;;;;;;1.22;100.00;103084.38;4992333;28;20212;-45
2022/03/27 05:33:44;;;;;;;26.30;7.97;;;;;;;1.30;100.00;103082.03;4993286;28;20579;-44
2022/03/27 05:36:10;;;;;;;22.75;7.72;;;;;;;1.34;100.00;103076.03;4992913;28;20192;-44
2022/03/27 05:38:40;;;;;;;22.92;8.40;;;;;;;1.40;100.00;103076.22;4993166;28;20228;-44
2022/03/27 05:41:09;;;;;;;26.05;7.63;;;;;;;1.40;100.00;103063.94;4993299;28;20655;-43
2022/03/27 05:43:35;;;;;;;27.67;7.13;;;;;;;1.46;100.00;103071.16;4992691;28;20530;-44
2022/03/27 05:46:01;;;;;;;25.30;7.72;;;;;;;1.47;100.00;103070.34;4992827;28;20267;-45
2022/03/27 05:48:27;;;;;;;19.40;7.63;;;;;;;1.58;100.00;103068.97;4992979;28;20174;-44
2022/03/27 05:50:52;;;;;;;25.55;8.02;;;;;;;1.66;100.00;103069.22;4993148;28;20483;-44
2022/03/27 05:53:18;;;;;;;29.02;8.38;;;;;;;1.75;100.00;103066.91;4992485;28;20165;-45
2022/03/27 05:55:44;;;;;;;24.83;7.43;;;;;;;1.95;100.00;103064.94;4993253;28;20612;-43
2022/03/27 05:58:10;;;;;;;27.65;9.35;;;;;;;2.26;100.00;103065.94;4992965;28;20204;-44
2022/03/27 06:00:36;;;;;;;31.85;9.75;;;;;;;2.52;100.00;103064.13;4991638;28;20636;-44
2022/03/27 06:03:01;;;;;;;31.20;10.20;;;;;;;2.90;100.00;103077.59;4993170;28;20252;-43
2022/03/27 06:05:27;;;;;;;32.88;11.18;;;;;;;3.22;100.00;103081.19;4993049;28;20703;-44
2022/03/27 06:07:57;;;;;;;36.20;11.77;;;;;;;3.46;100.00;103070.38;4993078;28;20180;-44
2022/03/27 06:10:33;;;;;;;32.45;11.65;;;;;;;3.68;100.00;103079.81;4992112;28;20651;-45
2022/03/27 06:13:00;;;;;;;34.45;11.77;;;;;;;4.08;100.00;103085.25;4992371;28;20168;-44
2022/03/27 06:15:27;;;;;;;28.90;9.90;;;;;;;4.32;100.00;103087.59;4993036;28;20201;-44
2022/03/27 06:17:55;;;;;;;30.40;10.32;;;;;;;4.56;100.00;103083.72;4992948;28;20213;-44
2022/03/27 06:20:23;;;;;;;29.67;9.98;;;;;;;4.62;100.00;103086.53;4991896;28;20671;-46
2022/03/27 06:22:51;;;;;;;23.83;10.30;;;;;;;4.93;100.00;103082.78;4992584;28;20847;-44
2022/03/27 06:25:22;;;;;;;32.35;9.45;;;;;;;5.15;99.33;103079.69;4960112;28;20852;-45
2022/03/27 06:27:49;;;;;;;28.77;9.68;;;;;;;5.17;98.72;103090.38;4991740;28;20182;-46
2022/03/27 06:30:17;;;;;;;19.73;8.10;;;;;;;5.56;98.17;103092.91;4991475;28;20181;-48
2022/03/27 06:32:44;;;;;;;18.65;8.40;;;;;;;5.57;96.57;103102.72;4991993;28;20192;-49
2022/03/27 06:35:11;;;;;;;27.65;7.53;;;;;;;5.36;95.96;103089.00;4992568;28;20569;-46
2022/03/27 06:37:37;;;;;;;20.08;7.18;;;;;;;5.78;95.17;103075.59;4992231;28;20595;-46
2022/03/27 06:40:04;;;;;;;23.65;7.78;;;;;;;5.48;95.23;103072.38;4991339;28;20169;-47
2022/03/27 06:42:30;;;;;;;20.13;7.75;;;;;;;5.51;94.68;103088.38;4992126;28;20790;-48
2022/03/27 06:44:57;;;;;;;17.08;6.85;;;;;;;5.67;94.03;103089.56;4991185;28;20212;-45
2022/03/27 06:47:26;;;;;;;21.33;7.32;;;;;;;5.97;93.42;103086.59;4991510;28;20613;-45
2022/03/27 06:49:53;;;;;;;17.45;6.75;;;;;;;6.31;92.71;103073.84;4992358;28;20649;-45
2022/03/27 06:52:19;;;;;;;22.38;6.65;;;;;;;6.56;91.28;103068.00;4991785;28;20165;-49
2022/03/27 06:54:45;;;;;;;19.23;6.13;;;;;;;6.52;90.07;103060.84;4992340;28;20189;-49
2022/03/27 06:57:11;;;;;;;29.23;8.35;;;;;;;6.88;90.02;103061.34;4992515;28;20194;-44
2022/03/27 07:05:06;;;;;;;24.63;7.20;;;;;;;7.40;86.19;103065.50;4991060;28;20189;-46
2022/03/27 07:07:32;;;;;;;26.55;7.60;;;;;;;7.53;86.03;103076.31;4991161;28;20174;-48
2022/03/27 07:09:57;;;;;;;23.20;6.75;;;;;;;7.99;84.98;103079.44;4991081;28;20274;-45
2022/03/27 07:12:24;;;;;;;24.75;7.00;;;;;;;8.24;83.46;103076.09;4991101;28;20169;-49
2022/03/27 07:14:51;;;;;;;23.02;6.43;;;;;;;8.13;82.62;103075.09;4988511;28;20272;-48
2022/03/27 07:17:17;;;;;;;22.92;8.13;;;;;;;7.92;82.81;103072.25;4990182;28;20202;-48
2022/03/27 07:19:47;;;;;;;23.63;7.93;;;;;;;8.31;82.45;103068.09;4989484;28;20220;-46
2022/03/27 07:22:13;;;;;;;19.90;6.57;;;;;;;8.69;81.58;103071.06;4990723;28;20173;-47
2022/03/27 07:24:38;;;;;;;21.92;6.38;;;;;;;8.48;80.39;103071.81;4989109;28;20244;-47
2022/03/27 07:27:04;;;;;;;25.13;6.82;;;;;;;8.52;80.96;103060.25;4990560;28;20169;-45
2022/03/27 07:29:30;;;;;;;22.98;7.13;;;;;;;8.10;81.58;103068.84;4989749;28;20173;-48
2022/03/27 07:31:57;;;;;;;26.27;6.90;;;;;;;7.81;82.44;103069.50;4989416;28;20649;-46
2022/03/27 07:34:23;;;;;;;26.45;7.97;;;;;;;7.65;83.16;103065.75;4986836;28;20284;-47
2022/03/27 07:36:48;;;;;;;27.40;7.25;;;;;;;8.18;82.97;103061.78;4989915;28;20288;-47
2022/03/27 07:39:13;;;;;;;26.70;6.63;;;;;;;8.78;81.76;103060.41;4989414;28;20177;-46
2022/03/27 07:41:39;;;;;;;24.98;7.57;;;;;;;9.01;79.87;103054.31;4990368;28;20201;-48
2022/03/27 07:44:05;;;;;;;32.35;8.07;;;;;;;8.87;79.07;103057.78;4986305;28;20734;-44
2022/03/27 07:46:31;;;;;;;27.77;7.40;;;;;;;8.87;79.88;103059.56;4990309;28;20181;-48
2022/03/27 07:48:56;;;;;;;21.98;6.78;;;;;;;8.62;80.15;103062.13;4991096;28;20620;-47
2022/03/27 07:51:22;;;;;;;25.65;7.38;;;;;;;9.01;79.67;103060.53;4989671;28;20196;-47
2022/03/27 07:53:47;;;;;;;26.40;6.60;;;;;;;8.95;79.01;103057.81;4986752;28;20687;-49
2022/03/27 07:56:13;;;;;;;23.50;7.65;;;;;;;9.18;78.14;103046.31;4973398;28;20211;-49
2022/03/27 07:58:39;;;;;;;25.55;7.50;;;;;;;9.55;77.79;103046.41;4990305;28;20568;-48
2022/03/27 08:01:05;;;;;;;25.30;6.63;;;;;;;10.13;76.61;103035.72;4990689;28;20169;-48
2022/03/27 08:03:33;;;;;;;24.85;6.57;;;;;;;10.15;74.85;103046.44;4987873;28;20185;-48
2022/03/27 08:05:59;;;;;;;21.92;7.13;;;;;;;9.84;75.37;103039.31;4990651;28;20280;-45
2022/03/27 08:08:25;;;;;;;23.38;7.70;;;;;;;9.73;75.49;103040.19;4988941;28;20228;-48
2022/03/27 08:10:50;;;;;;;25.40;6.53;;;;;;;10.46;74.05;103034.81;4989905;28;20574;-48
2022/03/27 08:13:16;;;;;;;24.52;6.68;;;;;;;9.79;74.42;103041.06;4988964;28;20656;-47
2022/03/27 08:15:41;;;;;;;25.02;7.97;;;;;;;10.28;75.46;103018.75;4990710;28;20205;-48
2022/03/27 08:18:08;;;;;;;23.33;7.03;;;;;;;9.39;75.79;103024.97;4989275;28;20193;-47
2022/03/27 08:20:33;;;;;;;25.90;6.70;;;;;;;9.89;77.48;103021.47;4989588;28;20174;-46
2022/03/27 08:22:59;;;;;;;30.58;7.15;;;;;;;10.00;75.84;103010.75;4988813;28;20566;-48
2022/03/27 08:28:10;;;;;;;25.80;6.80;;;;;;;10.42;73.99;103019.63;4990664;28;20170;-46
2022/03/27 08:30:35;;;;;;;23.25;5.85;;;;;;;10.71;74.63;103019.56;4990409;28;20182;-49
2022/03/27 08:33:01;;;;;;;30.70;7.70;;;;;;;10.94;72.66;103023.94;4988440;28;20540;-45
2022/03/27 08:35:26;;;;;;;29.30;7.38;;;;;;;11.28;72.69;103018.38;4988918;28;20201;-46
2022/03/27 08:37:52;;;;;;;20.58;6.32;;;;;;;11.08;71.70;103011.31;4990516;28;20208;-48
2022/03/27 08:40:19;;;;;;;21.02;6.63;;;;;;;11.06;72.50;103014.91;4989405;28;20231;-48
2022/03/27 08:42:45;;;;;;;21.60;6.28;;;;;;;11.53;71.37;103011.06;4988719;28;20188;-47
2022/03/27 08:45:10;;;;;;;20.83;6.68;;;;;;;11.41;71.06;103012.03;4990381;28;20288;-49
2022/03/27 08:47:39;;;;;;;22.27;6.75;;;;;;;11.83;69.85;103001.88;4990573;28;20720;-45
2022/03/27 08:50:29;;;;;;;25.83;6.90;;;;;;;11.92;68.90;103007.19;4990445;28;20235;-47
2022/03/27 08:53:00;;;;;;;20.35;6.13;;;;;;;12.21;68.00;103010.53;4989001;28;20173;-46
2022/03/27 08:55:39;;;;;;;18.02;6.65;;;;;;;11.71;69.29;103007.34;4989994;28;20625;-49
2022/03/27 08:58:08;;;;;;;21.80;7.22;;;;;;;11.47;71.29;103003.06;4989153;28;20625;-48
2022/03/27 09:00:34;;;;;;;21.92;6.72;;;;;;;11.51;71.26;103005.69;4988949;28;20166;-48
2022/03/27 09:03:04;;;;;;;23.10;6.57;;;;;;;11.46;70.87;102998.59;4988433;28;20174;-46
2022/03/27 09:05:33;;;;;;;26.63;7.15;;;;;;;11.59;70.50;103002.06;4990202;28;20205;-46
2022/03/27 09:08:03;;;;;;;16.52;6.03;;;;;;;11.79;71.07;103008.19;4988323;28;20173;-46
2022/03/27 09:10:29;;;;;;;20.25;6.20;;;;;;;12.02;68.72;102997.25;4990224;28;20240;-48
2022/03/27 09:12:56;;;;;;;18.40;5.80;;;;;;;11.89;69.67;103001.84;4989170;28;20181;-46
2022/03/27 09:15:23;;;;;;;15.60;6.25;;;;;;;12.09;68.75;102998.06;4990099;28;20205;-48
2022/03/27 09:18:02;;;;;;;18.33;5.40;;;;;;;12.30;68.88;102999.66;4989911;28;20234;-49
2022/03/27 09:20:50;;;;;;;15.73;6.05;;;;;;;12.63;67.74;102993.00;4989842;28;20185;-49
2022/03/27 09:23:18;;;;;;;18.80;6.20;;;;;;;12.29;67.18;102998.78;4989419;28;20519;-46
2022/03/27 09:25:48;;;;;;;16.90;6.15;;;;;;;12.25;67.69;103009.59;4989781;28;20621;-48
2022/03/27 09:28:37;;;;;;;15.48;5.43;;;;;;;12.54;66.48;103011.94;4990171;28;20165;-47
2022/03/27 09:31:05;;;;;;;12.57;5.15;;;;;;;12.64;66.69;102993.88;4987825;28;20563;-47
2022/03/27 09:33:34;;;;;;;13.88;5.60;;;;;;;12.89;65.88;102999.88;4989737;28;20162;-47
2022/03/27 09:36:11;;;;;;;15.60;5.13;;;;;;;13.18;64.80;102996.75;4989787;28;20209;-47
2022/03/27 09:38:37;;;;;;;16.27;5.68;;;;;;;12.87;65.02;103001.69;4989538;28;20522;-46
2022/03/27 09:41:04;;;;;;;17.13;5.93;;;;;;;12.63;65.06;102993.00;4990467;28;20180;-48
2022/03/27 09:43:29;;;;;;;14.05;5.80;;;;;;;12.68;65.63;102987.56;4989110;28;20652;-47
2022/03/27 09:45:57;;;;;;;15.15;6.65;;;;;;;12.66;66.44;102987.59;4991848;28;20236;-48
2022/03/27 09:48:23;;;;;;;19.73;6.47;;;;;;;12.88;65.45;102990.00;4993290;28;20161;-48
2022/03/27 09:50:51;;;;;;;16.17;5.57;;;;;;;12.60;65.04;102987.69;4993393;28;20621;-47
2022/03/27 09:53:27;;;;;;;13.43;5.32;;;;;;;13.10;64.15;102996.88;4992320;28;20617;-49
2022/03/27 09:56:11;;;;;;;12.57;5.80;;;;;;;12.75;65.21;102992.88;4993292;28;20201;-48
2022/03/27 09:58:45;;;;;;;13.07;5.78;;;;;;;13.05;64.99;102990.66;4993353;28;20178;-47
2022/03/27 10:01:13;;;;;;;16.13;5.32;;;;;;;13.03;65.35;102992.50;4993357;28;20656;-49
2022/03/27 10:03:57;;;;;;;13.00;5.80;;;;;;;12.85;65.81;102988.25;4991215;28;20185;-47
2022/03/27 10:06:37;;;;;;;17.65;5.88;;;;;;;12.90;64.17;103001.63;4993470;28;20670;-48
2022/03/27 10:09:06;;;;;;;14.77;5.53;;;;;;;12.92;63.85;102984.59;4992925;28;20652;-48
2022/03/27 10:11:34;;;;;;;13.52;5.68;;;;;;;12.94;64.50;102982.78;4993190;28;20269;-47
2022/03/27 10:14:00;;;;;;;15.50;5.45;;;;;;;13.25;64.59;102976.03;4982306;28;20420;-48
2022/03/27 10:16:34;;;;;;;11.93;4.75;;;;;;;13.62;62.49;102972.78;4979532;28;20169;-47
2022/03/27 10:19:06;;;;;;;16.33;5.65;;;;;;;13.22;63.08;102978.78;4993043;28;20288;-46
2022/03/27 10:21:32;;;;;;;15.68;5.07;;;;;;;13.71;63.35;102972.63;4992085;28;20184;-49
2022/03/27 10:24:07;;;;;;;13.52;5.53;;;;;;;13.55;60.63;102967.50;4992295;28;20243;-48
2022/03/27 10:26:33;;;;;;;17.20;5.38;;;;;;;13.71;60.60;102969.94;4992995;28;20651;-47
2022/03/27 10:29:01;;;;;;;19.80;5.82;;;;;;;13.58;61.29;102966.59;4993037;28;20188;-50
2022/03/27 10:31:27;;;;;;;13.95;4.85;;;;;;;13.28;61.02;102967.94;4992892;28;20296;-48
2022/03/27 10:33:55;;;;;;;11.90;5.00;;;;;;;13.28;61.72;102967.94;4992309;28;20204;-48
2022/03/27 10:36:33;;;;;;;17.35;4.88;;;;;;;13.95;60.20;102972.22;4991531;28;20694;-48
2022/03/27 10:39:20;;;;;;;14.20;4.80;;;;;;;14.08;59.63;102961.19;4991541;28;20651;-46
2022/03/27 10:42:06;;;;;;;14.73;5.10;;;;;;;14.10;57.65;102956.66;4991418;28;20227;-45
2022/03/27 10:44:40;;;;;;;14.18;4.40;;;;;;;14.20;57.17;102964.56;4991788;28;20200;-45
2022/03/27 10:47:18;;;;;;;12.88;4.78;;;;;;;13.99;57.51;102964.94;4992656;28;20161;-49
2022/03/27 10:50:02;;;;;;;13.00;4.75;;;;;;;13.84;57.85;102967.94;4992403;28;20181;-47
2022/03/27 10:52:36;;;;;;;13.85;4.05;;;;;;;14.04;56.97;102964.88;4991943;28;20379;-47
2022/03/27 10:55:12;;;;;;;13.30;4.43;;;;;;;14.00;55.81;102956.84;4993003;28;20194;-44
2022/03/27 10:57:45;;;;;;;12.32;3.78;;;;;;;13.96;57.19;102968.59;4991671;28;20619;-45
2022/03/27 11:00:12;;;;;;;12.85;4.10;;;;;;;14.23;56.94;102971.69;4993012;28;20169;-43
2022/03/27 11:02:53;;;;;;;8.75;3.63;;;;;;;14.87;55.47;102958.75;4992413;28;20177;-44
2022/03/27 11:05:44;;;;;;;10.60;4.43;;;;;;;14.54;55.99;102965.69;4992665;28;20221;-46
2022/03/27 11:08:19;;;;;;;10.73;3.75;;;;;;;14.53;55.79;102961.22;4969737;28;20563;-45
2022/03/27 11:10:54;;;;;;;12.05;4.30;;;;;;;14.04;56.85;102955.00;4992410;28;20189;-45
2022/03/27 11:13:39;;;;;;;14.48;4.15;;;;;;;13.75;58.83;102956.41;4992480;28;20157;-44
2022/03/27 11:16:09;;;;;;;11.70;4.18;;;;;;;13.98;59.59;102952.41;4992313;28;20197;-45
2022/03/27 11:18:45;;;;;;;13.95;4.50;;;;;;;13.97;58.61;102954.22;4992281;28;20276;-44
2022/03/27 11:21:34;;;;;;;11.63;4.15;;;;;;;14.13;57.49;102945.84;4992264;28;20182;-45
2022/03/27 11:24:03;;;;;;;14.23;4.38;;;;;;;14.31;56.56;102948.16;4991693;28;20267;-45
2022/03/27 11:26:29;;;;;;;12.10;4.07;;;;;;;14.74;55.34;102935.66;4992460;28;20219;-46
2022/03/27 11:28:56;;;;;;;12.65;3.90;;;;;;;14.41;55.36;102935.41;4991758;28;20177;-45
2022/03/27 11:31:23;;;;;;;10.60;4.45;;;;;;;14.40;56.28;102934.50;4992334;28;20551;-45